Time;durP1;ratioP1;P1;durP2;ratioP2;P2;SDS_P1;SDS_P2;PMS_P1;PMS_P2;Temp;Humidity;BMP_temperature;BMP_pressure;BME280_temperature;BME280_humidity;BME280_pressure;Samples;Min_cycle;Max_cycle;Signal;HPM_P1;HPM_P2
2021/07/05 00:01:22;;;;;;;8.30;5.92;;;;;;;22.75;100.00;99756.83;1725176;81;21777;-43
2021/07/05 00:03:49;;;;;;;7.08;6.37;;;;;;;22.76;100.00;99759.38;1727198;81;20944;-44
2021/07/05 00:06:15;;;;;;;6.78;5.40;;;;;;;22.78;100.00;99753.73;1731072;81;20968;-43
2021/07/05 00:08:43;;;;;;;7.15;6.53;;;;;;;22.75;100.00;99752.75;1730782;82;20960;-45
2021/07/05 00:11:10;;;;;;;7.28;6.58;;;;;;;22.71;100.00;99752.30;1728877;82;21015;-45
2021/07/05 00:13:36;;;;;;;7.92;5.53;;;;;;;22.67;100.00;99749.61;1733454;81;21424;-47
2021/07/05 00:16:05;;;;;;;7.65;6.85;;;;;;;22.63;100.00;99750.52;1728215;81;20961;-43
2021/07/05 00:18:31;;;;;;;7.30;6.60;;;;;;;22.61;100.00;99742.22;1728135;81;21455;-44
2021/07/05 00:20:58;;;;;;;7.08;6.37;;;;;;;22.59;100.00;99745.11;1728692;81;21020;-45
2021/07/05 00:23:24;;;;;;;6.85;6.22;;;;;;;22.59;100.00;99749.70;1730407;81;20941;-44
2021/07/05 00:25:51;;;;;;;7.37;6.67;;;;;;;22.59;100.00;99748.34;1732078;81;21008;-43
2021/07/05 00:28:19;;;;;;;6.95;5.65;;;;;;;22.59;100.00;99746.98;1728072;81;20940;-42
2021/07/05 00:30:45;;;;;;;6.83;5.62;;;;;;;22.60;100.00;99744.09;1734778;81;21443;-41
2021/07/05 00:33:14;;;;;;;6.70;6.03;;;;;;;22.58;100.00;99739.36;1730819;81;20986;-44
2021/07/05 00:35:40;;;;;;;5.62;5.05;;;;;;;22.56;100.00;99728.34;1709355;82;21339;-44
2021/07/05 00:38:07;;;;;;;6.47;5.87;;;;;;;22.56;100.00;99729.70;1729986;81;20929;-45
2021/07/05 00:40:34;;;;;;;5.70;5.20;;;;;;;22.54;100.00;99729.05;1726992;82;20980;-44
2021/07/05 00:43:01;;;;;;;5.37;4.80;;;;;;;22.51;100.00;99724.83;1727676;82;21440;-45
2021/07/05 00:45:28;;;;;;;5.42;4.83;;;;;;;22.49;100.00;99722.80;1729287;82;20972;-43
2021/07/05 00:47:55;;;;;;;5.65;5.03;;;;;;;22.47;100.00;99728.41;1730241;81;21399;-45
2021/07/05 00:50:22;;;;;;;5.80;4.50;;;;;;;22.45;100.00;99731.84;1726811;81;21067;-45
2021/07/05 00:52:52;;;;;;;5.47;4.65;;;;;;;22.43;100.00;99731.70;1730095;82;21424;-45
2021/07/05 00:55:19;;;;;;;4.58;3.85;;;;;;;22.40;100.00;99724.77;1720199;82;21904;-44
2021/07/05 00:57:45;;;;;;;6.33;5.25;;;;;;;22.39;100.00;99727.14;1724276;81;20956;-45
2021/07/05 01:00:17;;;;;;;6.33;4.78;;;;;;;22.37;100.00;99724.28;1723831;81;21013;-44
2021/07/05 01:02:44;;;;;;;6.42;4.47;;;;;;;22.35;100.00;99724.48;1723659;81;20945;-44
2021/07/05 01:05:11;;;;;;;7.33;5.15;;;;;;;22.34;100.00;99720.58;1706959;82;21796;-44
2021/07/05 01:07:38;;;;;;;6.28;4.12;;;;;;;22.34;100.00;99716.50;1724203;82;20953;-44
2021/07/05 01:10:06;;;;;;;5.50;4.87;;;;;;;22.29;100.00;99718.93;1726290;81;21500;-44
2021/07/05 01:12:34;;;;;;;4.47;4.05;;;;;;;22.24;100.00;99723.03;1728460;82;20968;-44
2021/07/05 01:15:03;;;;;;;8.05;4.85;;;;;;;22.22;100.00;99731.03;1730555;81;21444;-45
2021/07/05 01:17:29;;;;;;;4.85;4.33;;;;;;;22.20;100.00;99734.43;1723567;82;21456;-44
2021/07/05 01:19:56;;;;;;;5.37;4.08;;;;;;;22.19;100.00;99740.87;1726313;82;20941;-45
2021/07/05 01:22:23;;;;;;;4.85;4.08;;;;;;;22.17;100.00;99740.20;1723763;81;20972;-46
2021/07/05 01:24:49;;;;;;;4.97;4.50;;;;;;;22.15;100.00;99743.12;1727058;82;20968;-47
2021/07/05 01:27:16;;;;;;;5.70;4.45;;;;;;;22.15;100.00;99731.39;1722065;81;20954;-45
2021/07/05 01:29:43;;;;;;;6.67;4.15;;;;;;;22.12;100.00;99729.88;1725232;82;20977;-45
2021/07/05 01:32:10;;;;;;;6.30;5.15;;;;;;;22.12;100.00;99726.33;1725114;81;20956;-43
2021/07/05 01:34:37;;;;;;;5.70;3.72;;;;;;;22.08;100.00;99725.87;1730070;81;20972;-44
2021/07/05 01:37:06;;;;;;;4.08;3.67;;;;;;;22.07;100.00;99730.11;1735223;81;20941;-43
2021/07/05 01:39:33;;;;;;;6.50;4.40;;;;;;;22.06;100.00;99731.15;1733969;81;21000;-44
2021/07/05 01:42:02;;;;;;;6.90;4.42;;;;;;;22.03;100.00;99734.55;1732819;81;20968;-44
2021/07/05 01:44:29;;;;;;;6.80;3.95;;;;;;;22.01;100.00;99735.23;1730298;81;21003;-43
2021/07/05 01:46:56;;;;;;;5.95;4.50;;;;;;;21.99;100.00;99735.09;1725339;81;20974;-44
2021/07/05 01:49:25;;;;;;;5.42;3.67;;;;;;;21.97;100.00;99737.13;1733004;81;21005;-44
2021/07/05 01:51:51;;;;;;;5.20;3.75;;;;;;;21.92;100.00;99742.27;1733419;81;20977;-43
2021/07/05 01:54:18;;;;;;;6.33;3.62;;;;;;;21.87;100.00;99744.67;1733922;82;21293;-42
2021/07/05 01:56:44;;;;;;;5.10;3.45;;;;;;;21.85;100.00;99742.64;1731914;81;20944;-42
2021/07/05 01:59:11;;;;;;;5.42;4.10;;;;;;;21.84;100.00;99744.52;1720740;81;20972;-43
2021/07/05 02:01:40;;;;;;;3.98;3.58;;;;;;;21.84;100.00;99751.30;1729369;82;20996;-43
2021/07/05 02:04:07;;;;;;;5.53;3.47;;;;;;;21.83;100.00;99753.70;1733441;81;20968;-43
2021/07/05 02:06:34;;;;;;;5.70;4.45;;;;;;;21.82;100.00;99747.44;1727778;81;21004;-43
2021/07/05 02:09:03;;;;;;;16.05;5.62;;;;;;;21.80;100.00;99751.35;1731547;81;21451;-44
2021/07/05 02:11:30;;;;;;;3.75;3.30;;;;;;;21.77;100.00;99754.40;1731856;81;20976;-43
2021/07/05 02:13:57;;;;;;;3.42;3.12;;;;;;;21.74;100.00;99756.13;1733918;81;20940;-44
2021/07/05 02:16:24;;;;;;;4.87;3.52;;;;;;;21.70;100.00;99760.23;1727366;81;20981;-43
2021/07/05 02:18:51;;;;;;;7.37;4.03;;;;;;;21.67;100.00;99758.73;1733562;81;21011;-44
2021/07/05 02:21:18;;;;;;;4.28;3.87;;;;;;;21.66;100.00;99754.83;1733647;81;21035;-44
2021/07/05 02:23:44;;;;;;;6.58;3.85;;;;;;;21.64;100.00;99754.98;1733616;81;21454;-44
2021/07/05 02:26:11;;;;;;;4.33;3.90;;;;;;;21.63;100.00;99750.60;1730421;81;21313;-43
2021/07/05 02:28:38;;;;;;;5.12;3.95;;;;;;;21.60;100.00;99754.52;1731162;81;20988;-43
2021/07/05 02:31:06;;;;;;;4.53;4.08;;;;;;;21.59;100.00;99752.81;1733706;81;20972;-43
2021/07/05 02:33:33;;;;;;;5.33;4.10;;;;;;;21.58;100.00;99753.00;1733163;81;21415;-45
2021/07/05 02:35:59;;;;;;;6.72;3.90;;;;;;;21.57;100.00;99756.72;1737681;81;20984;-43
2021/07/05 02:38:26;;;;;;;4.53;3.85;;;;;;;21.56;100.00;99755.88;1738498;81;20948;-46
2021/07/05 02:40:55;;;;;;;5.92;3.85;;;;;;;21.53;100.00;99760.83;1737188;81;21027;-45
2021/07/05 02:43:22;;;;;;;5.03;4.33;;;;;;;21.52;100.00;99759.13;1739250;81;20984;-44
2021/07/05 02:45:51;;;;;;;5.50;3.67;;;;;;;21.50;100.00;99756.61;1739381;81;20972;-44
2021/07/05 02:48:21;;;;;;;5.60;4.03;;;;;;;21.52;100.00;99761.35;1738677;81;21003;-41
2021/07/05 02:50:51;;;;;;;3.90;3.10;;;;;;;21.53;100.00;99765.73;1714735;82;20991;-40
2021/07/05 02:53:18;;;;;;;9.15;4.80;;;;;;;21.57;100.00;99768.92;1739238;81;20934;-42
2021/07/05 02:55:44;;;;;;;5.75;3.62;;;;;;;21.57;100.00;99775.22;1740190;81;21040;-43
2021/07/05 02:58:11;;;;;;;6.17;5.20;;;;;;;21.59;100.00;99775.86;1737247;81;21880;-41
2021/07/05 03:00:44;;;;;;;4.80;3.92;;;;;;;21.60;100.00;99772.66;1739387;81;21023;-42
2021/07/05 03:03:11;;;;;;;5.70;3.72;;;;;;;21.63;100.00;99774.17;1737157;81;21000;-42
2021/07/05 03:05:39;;;;;;;4.10;3.70;;;;;;;21.65;100.00;99777.56;1739790;81;20984;-39
2021/07/05 03:08:06;;;;;;;4.83;4.12;;;;;;;21.64;100.00;99769.91;1739118;81;20995;-44
2021/07/05 03:10:36;;;;;;;4.08;3.67;;;;;;;21.63;100.00;99771.46;1709857;82;20943;-42
2021/07/05 03:13:08;;;;;;;4.08;3.40;;;;;;;21.60;100.00;99775.38;1738461;81;20955;-40
2021/07/05 03:15:35;;;;;;;6.60;4.42;;;;;;;21.59;100.00;99769.60;1736741;81;20974;-43
2021/07/05 03:18:02;;;;;;;4.67;4.25;;;;;;;21.58;100.00;99773.34;1740747;82;20951;-41
2021/07/05 03:20:32;;;;;;;5.12;4.53;;;;;;;21.61;100.00;99771.63;1736269;81;21455;-42
2021/07/05 03:22:59;;;;;;;4.72;3.58;;;;;;;21.64;100.00;99774.49;1736784;82;20942;-39
2021/07/05 03:25:27;;;;;;;6.67;3.85;;;;;;;21.68;100.00;99776.68;1735557;81;21000;-41
2021/07/05 03:27:54;;;;;;;4.33;3.92;;;;;;;21.69;100.00;99769.38;1739894;81;20948;-49
2021/07/05 03:30:22;;;;;;;10.03;5.33;;;;;;;21.72;100.00;99772.59;1736314;81;20976;-40
2021/07/05 03:32:49;;;;;;;4.70;4.20;;;;;;;21.76;100.00;99767.13;1739136;81;20974;-41
2021/07/05 03:35:16;;;;;;;5.58;4.55;;;;;;;21.78;100.00;99770.52;1737045;81;21493;-42
2021/07/05 03:37:43;;;;;;;4.15;3.75;;;;;;;21.82;100.00;99770.50;1733977;81;21506;-41
2021/07/05 03:40:14;;;;;;;7.65;4.42;;;;;;;21.84;100.00;99779.80;1730372;81;21361;-43
2021/07/05 03:42:41;;;;;;;5.53;3.95;;;;;;;21.85;100.00;99767.94;1733040;81;20949;-42
2021/07/05 03:45:08;;;;;;;5.58;5.05;;;;;;;21.90;100.00;99770.08;1731702;81;21016;-43
2021/07/05 03:47:36;;;;;;;7.70;4.85;;;;;;;21.90;100.00;99766.02;1734322;81;20954;-43
2021/07/05 03:50:08;;;;;;;5.53;4.40;;;;;;;21.92;100.00;99767.52;1732810;81;21056;-43
2021/07/05 03:52:35;;;;;;;4.15;3.72;;;;;;;21.95;100.00;99764.47;1732778;81;20976;-44
2021/07/05 03:55:05;;;;;;;7.30;4.83;;;;;;;22.00;100.00;99770.72;1734799;81;21004;-41
2021/07/05 03:57:32;;;;;;;6.97;5.17;;;;;;;22.02;100.00;99769.52;1732430;81;21031;-45
2021/07/05 03:59:58;;;;;;;6.10;5.47;;;;;;;22.07;100.00;99770.30;1731380;81;20971;-46
2021/07/05 04:02:25;;;;;;;5.60;4.60;;;;;;;22.11;100.00;99766.21;1730728;81;21004;-44
2021/07/05 04:04:56;;;;;;;7.35;4.50;;;;;;;22.15;100.00;99763.97;1734303;81;20988;-43
2021/07/05 04:07:23;;;;;;;8.00;4.85;;;;;;;22.17;100.00;99757.84;1733678;81;20960;-42
2021/07/05 04:09:51;;;;;;;4.53;4.12;;;;;;;22.19;100.00;99763.95;1735341;81;20994;-44
2021/07/05 04:12:21;;;;;;;4.90;4.30;;;;;;;22.20;100.00;99764.30;1735889;81;20972;-47
2021/07/05 04:14:47;;;;;;;5.15;4.53;;;;;;;22.20;100.00;99762.94;1734535;81;21012;-43
2021/07/05 04:17:14;;;;;;;5.67;4.90;;;;;;;22.24;100.00;99773.25;1734894;81;20988;-44
2021/07/05 04:19:42;;;;;;;7.37;5.20;;;;;;;22.31;100.00;99758.45;1733130;81;21320;-42
2021/07/05 04:22:09;;;;;;;6.78;5.33;;;;;;;22.36;100.00;99768.24;1706626;81;21437;-43
2021/07/05 04:24:36;;;;;;;10.70;5.67;;;;;;;22.42;100.00;99762.06;1734914;81;20996;-43
2021/07/05 04:27:03;;;;;;;6.45;5.67;;;;;;;22.43;100.00;99758.86;1734157;81;20996;-42
2021/07/05 04:29:30;;;;;;;11.43;6.67;;;;;;;22.44;100.00;99760.53;1733613;81;20972;-40
2021/07/05 04:31:56;;;;;;;6.10;5.28;;;;;;;22.42;100.00;99758.52;1728197;81;21448;-44
2021/07/05 04:34:23;;;;;;;5.80;5.20;;;;;;;22.42;100.00;99760.70;1734655;81;20999;-44
2021/07/05 04:36:50;;;;;;;6.92;6.17;;;;;;;22.43;100.00;99757.50;1730282;82;21570;-42
2021/07/05 04:39:17;;;;;;;6.50;5.33;;;;;;;22.43;100.00;99758.86;1728199;82;21496;-44
2021/07/05 04:41:44;;;;;;;5.70;5.20;;;;;;;22.40;100.00;99757.84;1726449;82;20975;-44
2021/07/05 04:44:13;;;;;;;6.08;5.55;;;;;;;22.39;100.00;99758.36;1728269;82;21020;-45
2021/07/05 04:46:45;;;;;;;7.83;5.95;;;;;;;22.40;100.00;99756.00;1723894;82;20956;-43
2021/07/05 04:49:08;;;;;;;7.42;6.67;;;;;;;22.42;100.00;99753.92;1724998;80;21024;-45
2021/07/05 04:51:35;;;;;;;7.75;6.08;;;;;;;22.40;100.00;99755.13;1724425;81;20972;-44
2021/07/05 04:54:01;;;;;;;6.35;5.50;;;;;;;22.40;100.00;99752.41;1726388;81;20968;-43
2021/07/05 04:56:28;;;;;;;7.20;6.50;;;;;;;22.42;100.00;99760.70;1728998;82;21032;-43
2021/07/05 04:58:54;;;;;;;7.35;5.90;;;;;;;22.45;100.00;99761.72;1726527;82;20976;-40
2021/07/05 05:01:23;;;;;;;6.90;6.28;;;;;;;22.50;100.00;99756.23;1722255;81;21457;-41
2021/07/05 05:03:49;;;;;;;7.08;5.85;;;;;;;22.53;100.00;99759.44;1726481;82;20980;-42
2021/07/05 05:06:15;;;;;;;9.08;6.33;;;;;;;22.55;100.00;99760.08;1729893;81;20953;-41
2021/07/05 05:08:42;;;;;;;6.50;5.90;;;;;;;22.56;100.00;99761.78;1726705;81;21436;-42
2021/07/05 05:11:09;;;;;;;7.17;5.37;;;;;;;22.61;100.00;99761.23;1729363;81;20984;-44
2021/07/05 05:13:36;;;;;;;6.33;5.72;;;;;;;22.66;100.00;99764.23;1729674;81;21011;-42
2021/07/05 05:16:03;;;;;;;6.67;5.95;;;;;;;22.70;100.00;99754.67;1729677;81;20976;-44
2021/07/05 05:18:30;;;;;;;7.65;5.42;;;;;;;22.76;100.00;99759.38;1727456;81;20964;-42
2021/07/05 05:20:57;;;;;;;7.05;5.70;;;;;;;22.82;100.00;99764.58;1724771;81;21004;-43
2021/07/05 05:23:23;;;;;;;7.37;6.67;;;;;;;22.88;100.00;99761.09;1727928;81;21467;-49
2021/07/05 05:25:50;;;;;;;7.45;5.87;;;;;;;22.90;100.00;99759.05;1730490;81;20984;-43
2021/07/05 05:28:16;;;;;;;8.08;6.12;;;;;;;22.94;100.00;99759.01;1727966;81;20984;-42
2021/07/05 05:30:43;;;;;;;6.47;5.87;;;;;;;22.99;100.00;99760.68;1729676;81;21479;-43
2021/07/05 05:33:10;;;;;;;6.65;6.05;;;;;;;23.07;100.00;99759.73;1724892;81;20973;-47
2021/07/05 05:35:36;;;;;;;7.20;6.50;;;;;;;23.11;100.00;99755.10;1722511;81;20988;-43
2021/07/05 05:38:03;;;;;;;6.85;6.25;;;;;;;23.14;100.00;99751.69;1725390;82;20962;-46
2021/07/05 05:40:29;;;;;;;7.17;5.87;;;;;;;23.15;100.00;99746.04;1729457;81;20977;-46
2021/07/05 05:42:56;;;;;;;7.08;6.40;;;;;;;23.17;100.00;99750.78;1727480;81;21027;-41
2021/07/05 05:45:23;;;;;;;7.53;6.80;;;;;;;23.20;100.00;99749.03;1728874;82;20969;-41
2021/07/05 05:47:50;;;;;;;8.88;6.33;;;;;;;23.20;100.00;99742.76;1725783;82;20927;-42
2021/07/05 05:50:17;;;;;;;6.67;6.08;;;;;;;23.21;100.00;99743.07;1726118;81;21024;-43
2021/07/05 05:52:44;;;;;;;8.60;6.55;;;;;;;23.22;100.00;99740.17;1728824;81;21439;-44
2021/07/05 05:55:11;;;;;;;7.60;6.80;;;;;;;23.22;100.00;99738.82;1732525;82;21017;-44
2021/07/05 05:57:39;;;;;;;7.92;7.12;;;;;;;23.24;100.00;99733.20;1728428;81;21500;-44
2021/07/05 06:00:18;;;;;;;7.80;6.95;;;;;;;23.25;100.00;99734.87;1726574;82;21005;-42
2021/07/05 06:02:44;;;;;;;6.97;6.30;;;;;;;23.27;100.00;99736.89;1727179;81;21016;-43
2021/07/05 06:05:11;;;;;;;6.47;5.87;;;;;;;23.27;100.00;99732.81;1731367;82;21000;-44
2021/07/05 06:07:37;;;;;;;6.78;6.17;;;;;;;23.28;100.00;99735.36;1726818;82;21029;-42
2021/07/05 06:10:05;;;;;;;12.63;7.33;;;;;;;23.33;100.00;99736.13;1725468;81;20984;-42
2021/07/05 06:12:32;;;;;;;7.55;6.75;;;;;;;23.39;100.00;99729.94;1725316;82;20966;-44
2021/07/05 06:14:59;;;;;;;8.43;6.25;;;;;;;23.43;100.00;99736.66;1726571;81;20948;-44
2021/07/05 06:17:25;;;;;;;6.85;6.20;;;;;;;23.46;100.00;99722.70;1731087;81;21036;-45
2021/07/05 06:19:52;;;;;;;8.43;6.10;;;;;;;23.51;100.00;99723.46;1724721;81;20968;-46
2021/07/05 06:22:28;;;;;;;6.55;5.78;;;;;;;23.55;100.00;99722.05;1726808;81;21482;-43
2021/07/05 06:24:48;;;;;;;6.30;5.70;;;;;;;23.60;100.00;99722.32;1726075;81;20960;-44
2021/07/05 06:27:15;;;;;;;7.28;5.67;;;;;;;23.66;100.00;99731.58;1726265;81;20968;-42
2021/07/05 06:29:41;;;;;;;7.58;6.72;;;;;;;23.72;100.00;99733.55;1724031;81;20937;-44
2021/07/05 06:32:09;;;;;;;6.87;6.12;;;;;;;23.81;100.00;99732.41;1726816;81;20965;-41
2021/07/05 06:34:38;;;;;;;8.88;7.03;;;;;;;23.90;100.00;99725.81;1727086;82;20905;-43
2021/07/05 06:37:07;;;;;;;7.80;6.60;;;;;;;23.95;100.00;99725.23;1733733;81;21009;-43
2021/07/05 06:39:34;;;;;;;8.73;5.87;;;;;;;23.97;100.00;99721.28;1737135;81;20996;-43
2021/07/05 06:42:01;;;;;;;6.65;6.05;;;;;;;24.02;100.00;99717.14;1732418;81;21051;-41
2021/07/05 06:44:58;;;;;;;6.75;6.15;;;;;;;24.09;100.00;99720.24;1728088;81;21027;-44
2021/07/05 06:48:11;;;;;;;10.93;6.60;;;;;;;24.14;100.00;99720.99;1578231;89;21103;-43
2021/07/05 06:50:56;;;;;;;8.00;6.45;;;;;;;24.21;100.00;99721.06;1507017;94;21205;-44
2021/07/05 06:53:22;;;;;;;7.78;5.85;;;;;;;24.26;100.00;99724.03;1504559;94;21054;-46
2021/07/05 06:55:49;;;;;;;8.55;6.90;;;;;;;24.30;100.00;99730.26;1503088;94;21034;-46
2021/07/05 06:58:16;;;;;;;6.75;5.65;;;;;;;24.33;100.00;99722.21;1501913;94;21030;-43
2021/07/05 07:00:42;;;;;;;7.05;5.87;;;;;;;24.35;100.00;99725.59;1504591;94;21946;-42
2021/07/05 07:03:09;;;;;;;10.08;5.83;;;;;;;24.36;100.00;99713.11;1504273;94;21062;-41
2021/07/05 07:05:35;;;;;;;8.43;6.85;;;;;;;24.40;100.00;99722.58;1508556;94;21046;-40
2021/07/05 07:08:03;;;;;;;10.25;6.12;;;;;;;24.44;100.00;99717.57;1502086;94;21062;-41
2021/07/05 07:10:30;;;;;;;7.70;6.40;;;;;;;24.49;100.00;99714.29;1505188;94;21125;-41
2021/07/05 07:13:23;;;;;;;6.40;5.67;;;;;;;24.56;100.00;99720.63;1503502;94;21073;-43
2021/07/05 07:16:06;;;;;;;7.42;6.83;;;;;;;24.61;100.00;99718.16;1423073;99;21140;-44
2021/07/05 07:21:14;;;;;;;7.42;6.50;;;;;;;24.67;100.00;99713.78;1431384;98;21058;-45
2021/07/05 07:23:40;;;;;;;6.90;6.20;;;;;;;24.67;100.00;99718.73;1447620;98;21050;-40
2021/07/05 07:26:07;;;;;;;7.87;6.47;;;;;;;24.70;100.00;99723.78;1445780;98;21533;-43
2021/07/05 07:28:33;;;;;;;8.88;6.12;;;;;;;24.72;100.00;99720.34;1445756;98;21157;-42
2021/07/05 07:31:00;;;;;;;6.97;6.37;;;;;;;24.74;100.00;99716.03;1447321;98;21061;-41
2021/07/05 07:33:26;;;;;;;7.50;5.53;;;;;;;24.76;100.00;99718.87;1447576;98;21125;-44
2021/07/05 07:35:53;;;;;;;6.17;5.58;;;;;;;24.80;100.00;99717.45;1447108;98;21934;-42
2021/07/05 07:38:22;;;;;;;8.00;7.30;;;;;;;24.87;100.00;99727.53;1446214;98;21093;-42
2021/07/05 07:40:49;;;;;;;9.33;6.72;;;;;;;24.94;100.00;99727.89;1441422;98;21078;-41
2021/07/05 07:43:15;;;;;;;10.32;6.50;;;;;;;25.01;100.00;99723.84;1444675;98;21071;-43
2021/07/05 07:45:42;;;;;;;7.75;5.97;;;;;;;25.05;100.00;99727.86;1442141;98;21628;-43
2021/07/05 07:48:09;;;;;;;8.93;5.95;;;;;;;25.11;100.00;99728.94;1476824;95;21638;-43
2021/07/05 07:50:35;;;;;;;5.67;5.00;;;;;;;25.15;100.00;99719.28;1491843;95;21087;-44
2021/07/05 07:53:02;;;;;;;7.60;4.67;;;;;;;25.22;100.00;99726.52;1524296;87;20969;-43
2021/07/05 07:55:29;;;;;;;5.90;4.92;;;;;;;25.32;100.00;99730.20;1669000;84;20939;-42
2021/07/05 07:57:55;;;;;;;5.10;4.08;;;;;;;25.41;100.00;99728.16;1672441;84;21047;-40
2021/07/05 08:00:22;;;;;;;5.62;4.92;;;;;;;25.49;100.00;99725.23;1671662;84;20987;-41
2021/07/05 08:02:48;;;;;;;7.25;4.62;;;;;;;25.59;100.00;99730.31;1673052;84;20980;-42
2021/07/05 08:05:15;;;;;;;8.40;5.00;;;;;;;25.66;100.00;99732.01;1669969;84;21866;-40
2021/07/05 08:07:43;;;;;;;4.50;4.10;;;;;;;25.73;100.00;99741.59;1673057;84;20991;-45
2021/07/05 08:10:11;;;;;;;10.60;9.55;;;;;;;25.79;100.00;99733.93;1673643;84;20977;-41
2021/07/05 08:12:39;;;;;;;6.00;5.17;;;;;;;25.86;100.00;99737.55;1669096;84;21076;-41
2021/07/05 08:15:08;;;;;;;4.45;4.05;;;;;;;25.92;100.00;99736.41;1669077;84;21039;-40
2021/07/05 08:17:34;;;;;;;7.00;4.15;;;;;;;25.97;100.00;99735.25;1716543;81;21004;-40
2021/07/05 08:20:05;;;;;;;4.72;3.62;;;;;;;26.00;100.00;99735.67;1732013;81;20987;-42
2021/07/05 08:22:34;;;;;;;7.90;4.42;;;;;;;26.04;100.00;99729.28;1736204;82;20956;-43
2021/07/05 08:25:03;;;;;;;6.37;4.17;;;;;;;26.08;100.00;99720.97;1730841;81;20944;-41
2021/07/05 08:27:31;;;;;;;5.58;3.75;;;;;;;26.13;100.00;99722.55;1726802;81;21314;-42
2021/07/05 08:30:05;;;;;;;4.80;4.33;;;;;;;26.18;100.00;99726.02;1732054;81;21071;-42
2021/07/05 08:32:31;;;;;;;5.25;4.28;;;;;;;26.22;100.00;99718.56;1735471;81;20953;-44
2021/07/05 08:34:58;;;;;;;5.08;3.55;;;;;;;26.23;100.00;99719.41;1729918;81;20994;-43
2021/07/05 08:37:26;;;;;;;3.55;3.25;;;;;;;26.26;100.00;99719.01;1734739;81;20947;-42
2021/07/05 08:39:52;;;;;;;6.20;4.17;;;;;;;26.29;100.00;99714.48;1738882;81;20999;-41
2021/07/05 08:42:22;;;;;;;5.00;3.90;;;;;;;26.33;100.00;99705.66;1737645;81;20924;-42
2021/07/05 08:44:49;;;;;;;3.47;3.17;;;;;;;26.38;100.00;99706.36;1734515;81;21437;-42
2021/07/05 08:47:16;;;;;;;4.15;3.40;;;;;;;26.43;100.00;99706.57;1741743;81;21015;-41
2021/07/05 08:49:47;;;;;;;4.85;4.35;;;;;;;26.49;100.00;99700.28;1738851;81;21020;-42
2021/07/05 08:52:14;;;;;;;5.37;4.45;;;;;;;26.54;100.00;99701.88;1737028;81;21030;-43
2021/07/05 08:54:42;;;;;;;5.92;4.17;;;;;;;26.59;100.00;99707.24;1737009;81;21422;-42
2021/07/05 08:57:26;;;;;;;6.75;3.42;;;;;;;26.63;100.00;99708.48;1734995;81;20984;-41
2021/07/05 08:59:37;;;;;;;4.28;3.58;;;;;;;26.67;100.00;99713.84;1740528;81;21448;-42
2021/07/05 09:02:04;;;;;;;7.12;3.20;;;;;;;26.70;100.00;99703.31;1740429;81;20968;-41
2021/07/05 09:04:33;;;;;;;4.22;3.83;;;;;;;26.72;100.00;99703.95;1738061;81;20968;-41
2021/07/05 09:07:07;;;;;;;6.95;4.37;;;;;;;26.76;100.00;99702.47;1738818;81;21899;-40
2021/07/05 09:09:37;;;;;;;6.00;4.12;;;;;;;26.81;100.00;99700.97;1739292;81;20968;-41
2021/07/05 09:12:08;;;;;;;5.30;4.08;;;;;;;26.86;100.00;99699.30;1703132;82;20995;-41
2021/07/05 09:14:38;;;;;;;8.03;4.22;;;;;;;26.89;100.00;99698.86;1738742;81;20948;-41
2021/07/05 09:17:09;;;;;;;4.85;3.40;;;;;;;26.91;100.00;99699.50;1739025;81;20952;-41
2021/07/05 09:19:38;;;;;;;4.87;3.83;;;;;;;26.94;100.00;99700.95;1735973;81;20960;-41
2021/07/05 09:22:08;;;;;;;3.40;3.08;;;;;;;26.98;100.00;99700.82;1739264;81;21416;-40
2021/07/05 09:24:43;;;;;;;12.90;3.83;;;;;;;27.03;100.00;99705.11;1738550;81;21430;-41
2021/07/05 09:27:33;;;;;;;5.03;3.80;;;;;;;27.03;100.00;99703.75;1736955;81;20951;-45
2021/07/05 09:29:58;;;;;;;4.20;3.77;;;;;;;26.96;100.00;99708.39;1734991;81;21279;-45
2021/07/05 09:32:29;;;;;;;4.22;3.83;;;;;;;26.92;100.00;99710.73;1686844;82;21015;-42
2021/07/05 09:34:56;;;;;;;5.12;4.17;;;;;;;26.93;100.00;99706.09;1740531;81;20968;-43
2021/07/05 09:37:25;;;;;;;5.42;4.35;;;;;;;26.92;100.00;99706.63;1737631;81;20936;-41
2021/07/05 09:40:10;;;;;;;4.62;3.50;;;;;;;26.91;100.00;99709.06;1737003;81;20995;-40
2021/07/05 09:42:44;;;;;;;4.03;3.33;;;;;;;26.93;100.00;99706.09;1738983;81;20975;-42
2021/07/05 09:45:25;;;;;;;5.33;4.05;;;;;;;26.94;100.00;99696.32;1734163;81;21478;-41
2021/07/05 09:48:19;;;;;;;7.30;3.77;;;;;;;26.91;100.00;99706.33;1737055;81;20944;-41
2021/07/05 09:51:01;;;;;;;4.78;3.27;;;;;;;26.85;100.00;99703.60;1736308;81;21043;-44
2021/07/05 09:53:44;;;;;;;4.90;3.90;;;;;;;26.84;100.00;99703.27;1737487;81;21806;-42
2021/07/05 09:56:26;;;;;;;6.30;3.67;;;;;;;26.88;100.00;99700.44;1737256;81;20972;-42
2021/07/05 09:59:02;;;;;;;4.87;3.30;;;;;;;26.94;100.00;99696.32;1738522;81;20968;-44
2021/07/05 10:01:44;;;;;;;3.12;2.55;;;;;;;27.03;100.00;99700.18;1737137;81;20979;-43
2021/07/05 10:04:24;;;;;;;5.62;3.90;;;;;;;27.12;100.00;99700.27;1734866;81;21440;-42
2021/07/05 10:06:54;;;;;;;5.45;2.87;;;;;;;27.21;100.00;99695.41;1739180;81;20976;-42
2021/07/05 10:09:34;;;;;;;6.35;3.10;;;;;;;27.27;100.00;99702.77;1738274;81;20947;-41
2021/07/05 10:12:26;;;;;;;6.22;3.80;;;;;;;27.29;100.00;99704.73;1734844;81;21034;-42
2021/07/05 10:15:11;;;;;;;4.67;3.35;;;;;;;27.26;100.00;99697.80;1732714;81;20944;-40
2021/07/05 10:17:42;;;;;;;4.03;3.30;;;;;;;27.18;100.00;99702.15;1735757;81;20964;-41
2021/07/05 10:20:21;;;;;;;3.47;3.17;;;;;;;27.11;100.00;99702.67;1738617;81;20936;-42
2021/07/05 10:22:50;;;;;;;5.80;3.05;;;;;;;27.07;100.00;99692.70;1735740;81;20956;-42
2021/07/05 10:25:17;;;;;;;4.65;2.92;;;;;;;27.11;100.00;99695.83;1739316;81;20943;-43
2021/07/05 10:27:43;;;;;;;4.10;3.65;;;;;;;27.16;100.00;99694.11;1739595;81;21439;-42
2021/07/05 10:30:12;;;;;;;5.30;3.47;;;;;;;27.20;100.00;99690.47;1736366;81;20975;-43
2021/07/05 10:32:39;;;;;;;6.15;3.35;;;;;;;27.22;100.00;99691.09;1739849;81;21412;-44
2021/07/05 10:35:09;;;;;;;3.80;3.35;;;;;;;27.20;100.00;99698.67;1738044;81;20987;-40
2021/07/05 10:37:59;;;;;;;3.92;3.12;;;;;;;27.19;100.00;99689.63;1732958;81;20988;-40
2021/07/05 10:40:38;;;;;;;3.17;2.65;;;;;;;27.19;100.00;99690.17;1726522;81;20949;-41
2021/07/05 10:43:04;;;;;;;2.98;2.77;;;;;;;27.18;100.00;99694.77;1727751;82;21028;-44
2021/07/05 10:45:49;;;;;;;3.55;3.10;;;;;;;27.15;100.00;99696.55;1728570;81;21016;-42
2021/07/05 10:48:29;;;;;;;4.15;3.20;;;;;;;27.10;100.00;99690.06;1731505;81;21008;-44
2021/07/05 10:50:57;;;;;;;5.47;3.30;;;;;;;27.09;100.00;99689.23;1728407;81;21064;-41
2021/07/05 10:53:50;;;;;;;3.60;3.30;;;;;;;27.14;100.00;99683.08;1727512;82;20941;-43
2021/07/05 10:56:42;;;;;;;6.58;5.92;;;;;;;27.20;100.00;99687.73;1728224;81;20972;-43
2021/07/05 10:59:17;;;;;;;7.75;3.72;;;;;;;27.30;100.00;99691.38;1723531;82;20987;-45
2021/07/05 11:01:46;;;;;;;4.83;3.10;;;;;;;27.38;100.00;99683.73;1720127;81;20943;-45
2021/07/05 11:04:31;;;;;;;4.17;2.70;;;;;;;27.45;100.00;99681.52;1725222;82;20961;-45
2021/07/05 11:07:15;;;;;;;4.35;2.85;;;;;;;27.52;100.00;99686.43;1723122;81;20960;-45
2021/07/05 11:09:53;;;;;;;3.47;2.80;;;;;;;27.59;100.00;99677.62;1726904;81;21000;-44
2021/07/05 11:12:35;;;;;;;5.25;3.42;;;;;;;27.63;100.00;99682.98;1728199;81;21775;-41
2021/07/05 11:15:06;;;;;;;6.47;3.02;;;;;;;27.65;98.26;99685.50;1724198;81;21531;-41
2021/07/05 11:17:35;;;;;;;5.42;2.87;;;;;;;27.70;97.70;99684.31;1726053;81;20966;-42
2021/07/05 11:20:15;;;;;;;3.52;2.80;;;;;;;27.75;98.96;99683.13;1723250;82;21012;-43
2021/07/05 11:22:53;;;;;;;3.58;2.60;;;;;;;27.82;98.92;99683.42;1702467;81;20955;-42
2021/07/05 11:25:25;;;;;;;4.87;2.65;;;;;;;27.86;94.40;99677.48;1727745;81;20956;-39
2021/07/05 11:27:59;;;;;;;4.20;2.87;;;;;;;27.89;100.00;99677.88;1728396;81;20963;-42
2021/07/05 11:30:41;;;;;;;6.25;3.25;;;;;;;27.93;100.00;99682.39;1724252;81;20998;-42
2021/07/05 11:33:19;;;;;;;4.58;2.95;;;;;;;27.97;98.11;99680.36;1725876;82;20927;-48
2021/07/05 11:35:58;;;;;;;3.27;2.75;;;;;;;28.02;96.14;99681.03;1729593;81;21381;-43
2021/07/05 11:38:41;;;;;;;3.45;2.70;;;;;;;28.04;97.98;99680.29;1736509;81;20999;-42